Time;durP1;ratioP1;P1;durP2;ratioP2;P2;SDS_P1;SDS_P2;PMS_P1;PMS_P2;Temp;Humidity;BMP_temperature;BMP_pressure;BME280_temperature;BME280_humidity;BME280_pressure;Samples;Min_cycle;Max_cycle;Signal;HPM_P1;HPM_P2
2022/04/02 00:00:01;;;;;;;56.30;33.42;;;;;;;;;;5034921;28;20021;-41
2022/04/02 00:02:26;;;;;;;53.88;32.60;;;;;;;;;;5035927;28;20048;-41
2022/04/02 00:04:51;;;;;;;56.80;33.25;;;;;;;;;;5034440;28;20079;-42
2022/04/02 00:07:17;;;;;;;59.72;33.42;;;;;;;;;;5036059;28;20013;-42
2022/04/02 00:09:43;;;;;;;57.10;33.20;;;;;;;;;;5036091;28;20105;-42
2022/04/02 00:12:08;;;;;;;59.35;34.03;;;;;;;;;;5035734;28;20095;-41
2022/04/02 00:14:34;;;;;;;62.38;35.13;;;;;;;;;;5035810;28;20100;-42
2022/04/02 00:16:59;;;;;;;59.58;33.38;;;;;;;;;;5035512;28;20018;-42
2022/04/02 00:19:24;;;;;;;60.35;33.30;;;;;;;;;;5035542;28;20024;-45
2022/04/02 00:21:49;;;;;;;58.60;32.92;;;;;;;;;;5035751;28;20043;-43
2022/04/02 00:24:15;;;;;;;58.83;33.90;;;;;;;;;;5034462;28;20021;-44
2022/04/02 00:26:40;;;;;;;61.88;34.58;;;;;;;;;;5035677;28;20064;-43
2022/04/02 00:29:08;;;;;;;61.13;34.35;;;;;;;;;;5035523;28;20022;-42
2022/04/02 00:31:33;;;;;;;58.00;31.52;;;;;;;;;;5035343;28;20044;-42
2022/04/02 00:33:59;;;;;;;59.30;33.25;;;;;;;;;;5033969;28;20388;-44
2022/04/02 00:36:24;;;;;;;56.92;32.20;;;;;;;;;;5034792;28;20022;-45
2022/04/02 00:38:50;;;;;;;57.53;32.83;;;;;;;;;;5035441;28;20096;-44
2022/04/02 00:41:16;;;;;;;60.55;35.63;;;;;;;;;;5035179;28;20028;-43
2022/04/02 00:43:54;;;;;;;58.15;31.80;;;;;;;;;;5035288;28;20101;-42
2022/04/02 00:46:19;;;;;;;61.17;33.15;;;;;;;;;;5035182;28;20519;-42
2022/04/02 00:48:45;;;;;;;62.63;33.58;;;;;;;;;;5034941;28;20017;-43
2022/04/02 00:51:11;;;;;;;59.88;34.20;;;;;;;;;;5035167;28;20022;-42
2022/04/02 00:53:39;;;;;;;59.75;32.53;;;;;;;;;;5035105;28;20072;-42
2022/04/02 00:56:04;;;;;;;67.97;35.85;;;;;;;;;;5035107;28;20113;-44
2022/04/02 00:58:30;;;;;;;57.28;32.13;;;;;;;;;;5034968;28;20520;-42
2022/04/02 01:00:55;;;;;;;60.33;33.20;;;;;;;;;;5034930;28;20453;-43
2022/04/02 01:03:21;;;;;;;66.55;34.28;;;;;;;;;;5034624;28;20445;-42
2022/04/02 01:05:47;;;;;;;61.50;33.65;;;;;;;;;;5035004;28;20031;-43
2022/04/02 01:08:12;;;;;;;60.10;33.28;;;;;;;;;;5035008;28;20411;-42
2022/04/02 01:10:41;;;;;;;64.70;35.03;;;;;;;;;;5034772;28;20460;-43
2022/04/02 01:13:07;;;;;;;62.83;33.97;;;;;;;;;;5034501;28;20038;-44
2022/04/02 01:15:32;;;;;;;62.35;34.53;;;;;;;;;;5034760;28;20235;-42
2022/04/02 01:17:57;;;;;;;64.97;34.78;;;;;;;;;;5034934;28;20045;-43
2022/04/02 01:20:23;;;;;;;60.83;34.70;;;;;;;;;;5034668;28;20026;-42
2022/04/02 01:22:49;;;;;;;64.28;33.67;;;;;;;;;;5034340;28;20025;-44
2022/04/02 01:25:14;;;;;;;62.17;33.70;;;;;;;;;;5034486;28;20033;-43
2022/04/02 01:27:40;;;;;;;61.65;34.22;;;;;;;;;;5034394;28;20022;-43
2022/04/02 01:30:06;;;;;;;64.30;35.65;;;;;;;;;;5034421;28;20017;-43
2022/04/02 01:32:31;;;;;;;63.28;32.15;;;;;;;;;;5033898;28;20034;-42
2022/04/02 01:34:57;;;;;;;59.35;32.08;;;;;;;;;;5034512;28;20368;-45
2022/04/02 01:37:22;;;;;;;63.80;34.05;;;;;;;;;;5033103;28;20053;-42
2022/04/02 01:39:47;;;;;;;62.20;33.95;;;;;;;;;;5034413;28;20076;-43
2022/04/02 01:42:14;;;;;;;67.15;33.55;;;;;;;;;;5034331;28;20646;-42
2022/04/02 01:44:41;;;;;;;60.28;34.72;;;;;;;;;;5034169;28;20029;-41
2022/04/02 01:47:07;;;;;;;66.93;35.60;;;;;;;;;;5033917;28;20043;-41
2022/04/02 01:49:32;;;;;;;60.33;33.85;;;;;;;;;;5033891;28;20443;-41
2022/04/02 01:51:57;;;;;;;62.70;33.78;;;;;;;;;;5033883;28;20068;-42
2022/04/02 01:54:22;;;;;;;67.68;34.60;;;;;;;;;;5033603;28;20042;-42
2022/04/02 01:56:48;;;;;;;61.80;33.78;;;;;;;;;;5033910;28;20022;-42
2022/04/02 01:59:13;;;;;;;59.40;32.90;;;;;;;;;;5033961;28;20029;-44
2022/04/02 02:01:39;;;;;;;63.88;32.60;;;;;;;;;;5033846;28;20381;-42
2022/04/02 02:04:04;;;;;;;61.55;33.67;;;;;;;;;;5033666;28;20025;-42
2022/04/02 02:06:31;;;;;;;62.35;33.20;;;;;;;;;;5033021;28;20025;-43
2022/04/02 02:08:57;;;;;;;63.10;34.35;;;;;;;;;;5033209;28;20353;-43
2022/04/02 02:11:22;;;;;;;60.60;32.90;;;;;;;;;;5033604;28;20025;-42
2022/04/02 02:13:47;;;;;;;62.55;33.67;;;;;;;;;;5033572;28;20021;-42
2022/04/02 02:16:13;;;;;;;64.15;35.40;;;;;;;;;;5033584;28;20474;-42
2022/04/02 02:18:38;;;;;;;63.45;34.33;;;;;;;;;;5032024;28;20021;-42
2022/04/02 02:21:03;;;;;;;57.03;33.30;;;;;;;;;;5033716;28;20104;-42
2022/04/02 02:23:28;;;;;;;64.82;34.72;;;;;;;;;;5033465;28;20024;-42
2022/04/02 02:25:54;;;;;;;59.58;31.50;;;;;;;;;;5033367;28;20057;-45
2022/04/02 02:28:19;;;;;;;59.42;33.33;;;;;;;;;;5033441;28;20021;-43
2022/04/02 02:30:44;;;;;;;63.53;33.00;;;;;;;;;;5033227;28;20449;-44
2022/04/02 02:35:54;;;;;;;60.25;32.90;;;;;;;;;;5033158;28;20052;-42
2022/04/02 02:38:20;;;;;;;61.63;32.58;;;;;;;;;;5033229;28;20053;-42
2022/04/02 02:40:46;;;;;;;60.25;32.67;;;;;;;;;;5033168;28;20019;-44
2022/04/02 02:43:12;;;;;;;63.05;32.78;;;;;;;;;;5033137;28;20350;-42
2022/04/02 02:45:37;;;;;;;62.92;33.55;;;;;;;;;;5032922;28;20083;-42
2022/04/02 02:48:03;;;;;;;62.03;33.63;;;;;;;;;;5031623;28;20021;-42
2022/04/02 02:50:28;;;;;;;59.08;32.40;;;;;;;;;;5033057;28;20385;-42
2022/04/02 02:52:54;;;;;;;57.80;32.00;;;;;;;;;;5032923;28;20064;-42
2022/04/02 02:55:19;;;;;;;59.05;31.50;;;;;;;;;;5031654;28;20026;-44
2022/04/02 02:57:45;;;;;;;63.15;32.38;;;;;;;;;;5033070;28;20029;-42
2022/04/02 03:00:11;;;;;;;59.55;32.92;;;;;;;;;;5032548;28;20021;-43
2022/04/02 03:02:39;;;;;;;61.35;31.83;;;;;;;;;;5032631;28;20022;-42
2022/04/02 03:05:11;;;;;;;61.80;32.38;;;;;;;;;;5032983;28;20026;-46
2022/04/02 03:07:37;;;;;;;59.25;32.80;;;;;;;;;;5032936;28;20021;-42
2022/04/02 03:10:03;;;;;;;56.92;30.45;;;;;;;;;;5031689;28;20024;-42
2022/04/02 03:12:28;;;;;;;57.35;31.70;;;;;;;;;;5032760;28;20041;-45
2022/04/02 03:14:54;;;;;;;62.72;33.28;;;;;;;;;;5032501;28;20025;-45
2022/04/02 03:17:19;;;;;;;56.00;31.60;;;;;;;;;;5031452;28;20014;-42
2022/04/02 03:19:44;;;;;;;53.28;31.05;;;;;;;;;;5032749;28;20029;-45
2022/04/02 03:22:09;;;;;;;61.45;32.10;;;;;;;;;;5032966;28;20028;-42
2022/04/02 03:24:35;;;;;;;60.53;31.48;;;;;;;;;;5032631;28;20022;-43
2022/04/02 03:27:00;;;;;;;58.08;31.25;;;;;;;;;;5033047;28;20902;-42
2022/04/02 03:29:27;;;;;;;56.13;31.73;;;;;;;;;;5032522;28;20078;-44
2022/04/02 03:31:52;;;;;;;58.55;32.17;;;;;;;;;;5032488;28;20034;-43
2022/04/02 03:34:17;;;;;;;57.03;32.17;;;;;;;;;;5031194;28;20024;-44
2022/04/02 03:36:43;;;;;;;55.55;30.45;;;;;;;;;;5032502;28;20040;-42
2022/04/02 03:39:08;;;;;;;53.97;31.25;;;;;;;;;;5032477;28;20058;-43
2022/04/02 03:41:34;;;;;;;52.90;29.60;;;;;;;;;;5032463;28;20057;-42
2022/04/02 03:43:59;;;;;;;55.30;31.38;;;;;;;;;;5032477;28;20027;-43
2022/04/02 03:49:08;;;;;;;54.75;30.58;;;;;;;;;;5032581;28;20037;-41
2022/04/02 03:51:33;;;;;;;54.35;31.05;;;;;;;;;;5032545;28;20037;-42
2022/04/02 03:53:59;;;;;;;55.92;30.50;;;;;;;;;;5032107;28;20056;-42
2022/04/02 03:56:25;;;;;;;51.55;29.17;;;;;;;;;;5032355;28;20045;-42
2022/04/02 03:58:50;;;;;;;57.17;30.52;;;;;;;;;;5032207;28;20028;-43
2022/04/02 04:01:15;;;;;;;52.63;30.05;;;;;;;;;;5031287;28;20049;-42
2022/04/02 04:03:40;;;;;;;55.13;30.27;;;;;;;;;;5032544;28;20013;-42
2022/04/02 04:06:06;;;;;;;55.80;30.63;;;;;;;;;;5032381;28;20109;-43
2022/04/02 04:08:31;;;;;;;53.15;29.48;;;;;;;;;;5032374;28;20120;-43
2022/04/02 04:10:57;;;;;;;54.75;30.67;;;;;;;;;;5033344;28;20025;-41
2022/04/02 04:13:23;;;;;;;58.75;31.45;;;;;;;;;;5035681;28;20075;-42
2022/04/02 04:15:48;;;;;;;55.47;30.30;;;;;;;;;;5035734;28;20018;-43
2022/04/02 04:18:13;;;;;;;54.83;30.98;;;;;;;;;;5035866;28;20372;-43
2022/04/02 04:20:39;;;;;;;54.65;31.13;;;;;;;;;;5035919;28;20017;-42
2022/04/02 04:23:04;;;;;;;54.95;30.55;;;;;;;;;;5035773;28;20174;-43
2022/04/02 04:25:29;;;;;;;47.65;28.20;;;;;;;;;;5035523;28;20022;-42
2022/04/02 04:27:55;;;;;;;52.03;28.15;;;;;;;;;;5035699;28;20021;-42
2022/04/02 04:30:20;;;;;;;49.42;29.80;;;;;;;;;;5035384;28;20025;-41
2022/04/02 04:32:45;;;;;;;50.17;27.65;;;;;;;;;;5035590;28;20041;-42
2022/04/02 04:35:10;;;;;;;52.08;29.08;;;;;;;;;;5035441;28;20061;-41
2022/04/02 04:37:37;;;;;;;51.00;29.17;;;;;;;;;;5035333;28;20147;-42
2022/04/02 04:40:04;;;;;;;53.75;30.08;;;;;;;;;;5035555;28;20097;-42
2022/04/02 04:42:29;;;;;;;59.47;30.48;;;;;;;;;;5035573;28;20025;-41
2022/04/02 04:44:55;;;;;;;53.92;28.92;;;;;;;;;;5035144;28;20088;-44
2022/04/02 04:47:20;;;;;;;51.42;28.77;;;;;;;;;;5035538;28;20021;-42
2022/04/02 04:49:45;;;;;;;51.35;29.00;;;;;;;;;;5035069;28;20021;-42
2022/04/02 04:52:10;;;;;;;51.78;28.48;;;;;;;;;;5033943;28;20045;-41
2022/04/02 04:54:36;;;;;;;49.10;28.48;;;;;;;;;;5035008;28;20044;-42
2022/04/02 04:57:01;;;;;;;53.33;29.85;;;;;;;;;;5035461;28;20557;-42
2022/04/02 04:59:26;;;;;;;47.30;27.63;;;;;;;;;;5034894;28;20021;-43
2022/04/02 05:01:52;;;;;;;50.20;28.60;;;;;;;;;;5034976;28;20032;-41
2022/04/02 05:04:18;;;;;;;47.63;28.75;;;;;;;;;;5033805;28;20022;-42
2022/04/02 05:06:43;;;;;;;54.65;29.35;;;;;;;;;;5034763;28;20041;-41
2022/04/02 05:09:09;;;;;;;48.63;29.08;;;;;;;;;;5034811;28;20489;-42
2022/04/02 05:11:35;;;;;;;49.20;29.20;;;;;;;;;;5034779;28;20040;-42
2022/04/02 05:14:00;;;;;;;52.03;28.55;;;;;;;;;;5034743;28;20022;-43
2022/04/02 05:16:26;;;;;;;50.63;29.63;;;;;;;;;;5033286;28;20153;-42
2022/04/02 05:18:51;;;;;;;51.85;28.85;;;;;;;;;;5034852;28;20101;-42
2022/04/02 05:21:16;;;;;;;52.88;30.60;;;;;;;;;;5034325;28;20022;-42
2022/04/02 05:23:42;;;;;;;47.80;28.02;;;;;;;;;;5034672;28;20021;-41
2022/04/02 05:26:07;;;;;;;50.97;29.40;;;;;;;;;;5034498;28;20100;-41
2022/04/02 05:28:33;;;;;;;47.83;28.52;;;;;;;;;;5033316;28;20408;-41
2022/04/02 05:30:59;;;;;;;48.85;28.23;;;;;;;;;;5034436;28;20452;-41
2022/04/02 05:33:24;;;;;;;54.72;32.60;;;;;;;;;;5034371;28;20041;-42
2022/04/02 05:35:49;;;;;;;46.45;27.88;;;;;;;;;;5034763;28;20511;-42
2022/04/02 05:38:15;;;;;;;47.88;28.90;;;;;;;;;;5034332;28;20029;-42
2022/04/02 05:40:40;;;;;;;45.80;27.25;;;;;;;;;;5034403;28;20022;-43
2022/04/02 05:43:06;;;;;;;47.55;28.70;;;;;;;;;;5032923;28;20021;-42
2022/04/02 05:45:32;;;;;;;51.38;27.63;;;;;;;;;;5032642;28;20139;-42
2022/04/02 05:47:57;;;;;;;51.15;27.38;;;;;;;;;;5032979;28;20026;-41
2022/04/02 05:50:24;;;;;;;48.75;28.25;;;;;;;;;;5034236;28;20111;-41
2022/04/02 05:52:49;;;;;;;44.42;27.23;;;;;;;;;;5033797;28;20060;-41
2022/04/02 05:55:15;;;;;;;48.75;28.20;;;;;;;;;;5034079;28;20461;-42
2022/04/02 05:57:40;;;;;;;43.47;26.13;;;;;;;;;;5032796;28;20376;-42
2022/04/02 06:00:08;;;;;;;45.95;26.75;;;;;;;;;;5033820;28;20076;-42
2022/04/02 06:02:33;;;;;;;41.67;26.23;;;;;;;;;;5033708;28;20018;-41
2022/04/02 06:04:59;;;;;;;38.17;25.33;;;;;;;;;;5033975;28;20445;-41
2022/04/02 06:07:24;;;;;;;38.88;24.58;;;;;;;;;;5032551;28;20056;-41
2022/04/02 06:09:50;;;;;;;42.05;25.98;;;;;;;;;;5032606;28;20021;-42
2022/04/02 06:12:15;;;;;;;37.53;24.05;;;;;;;;;;5033546;28;20117;-42
2022/04/02 06:14:40;;;;;;;37.67;23.85;;;;;;;;;;5033312;28;20018;-43
2022/04/02 06:17:05;;;;;;;40.25;25.17;;;;;;;;;;5033444;28;20342;-41
2022/04/02 06:19:31;;;;;;;43.90;24.77;;;;;;;;;;5033683;28;20037;-42
2022/04/02 06:21:56;;;;;;;38.58;24.50;;;;;;;;;;5033489;28;20461;-42
2022/04/02 06:24:21;;;;;;;39.13;24.27;;;;;;;;;;5033431;28;20100;-42
2022/04/02 06:26:47;;;;;;;37.15;24.05;;;;;;;;;;5033390;28;20021;-41
2022/04/02 06:29:12;;;;;;;37.60;23.73;;;;;;;;;;5032010;28;20024;-42
2022/04/02 06:31:39;;;;;;;39.50;25.15;;;;;;;;;;5032981;28;20029;-41
2022/04/02 06:34:04;;;;;;;42.88;25.05;;;;;;;;;;5032645;28;20067;-41
2022/04/02 06:36:29;;;;;;;40.05;25.52;;;;;;;;;;5033293;28;20104;-41
2022/04/02 06:38:55;;;;;;;40.08;24.80;;;;;;;;;;5032244;28;20017;-41
2022/04/02 06:41:20;;;;;;;38.50;23.55;;;;;;;;;;5033192;28;20380;-42
2022/04/02 06:43:45;;;;;;;36.72;23.42;;;;;;;;;;5033245;28;20022;-41
2022/04/02 06:46:10;;;;;;;35.50;22.73;;;;;;;;;;5033132;28;20095;-41
2022/04/02 06:48:36;;;;;;;39.63;25.55;;;;;;;;;;5033247;28;20105;-41
2022/04/02 06:51:01;;;;;;;37.50;23.67;;;;;;;;;;5033417;28;20087;-41
2022/04/02 06:53:28;;;;;;;37.13;23.85;;;;;;;;;;5031412;28;20508;-41
2022/04/02 06:55:53;;;;;;;39.75;23.85;;;;;;;;;;5033043;28;20044;-41
2022/04/02 06:58:26;;;;;;;40.85;24.92;;;;;;;;;;5032869;28;20409;-42
2022/04/02 07:00:51;;;;;;;41.72;24.88;;;;;;;;;;5032777;28;20025;-42
2022/04/02 07:03:16;;;;;;;37.28;23.45;;;;;;;;;;5032220;28;20028;-41
2022/04/02 07:05:41;;;;;;;36.67;24.27;;;;;;;;;;5032799;28;20548;-42
2022/04/02 07:08:07;;;;;;;36.20;23.58;;;;;;;;;;5033225;28;20025;-42
2022/04/02 07:10:32;;;;;;;38.90;23.88;;;;;;;;;;5032874;28;20028;-42
2022/04/02 07:12:57;;;;;;;39.65;24.98;;;;;;;;;;5031519;28;20083;-41
2022/04/02 07:15:23;;;;;;;37.97;23.90;;;;;;;;;;5032540;28;20025;-42
2022/04/02 07:17:49;;;;;;;41.22;25.40;;;;;;;;;;5032665;28;20087;-41
2022/04/02 07:20:17;;;;;;;34.20;23.35;;;;;;;;;;5032782;28;20426;-42
2022/04/02 07:22:43;;;;;;;38.53;23.88;;;;;;;;;;5032668;28;20376;-42
2022/04/02 07:25:08;;;;;;;37.08;24.65;;;;;;;;;;5031561;28;20029;-42
2022/04/02 07:27:34;;;;;;;37.70;24.20;;;;;;;;;;5032572;28;20013;-42
2022/04/02 07:29:59;;;;;;;38.65;23.73;;;;;;;;;;5032478;28;20402;-42
2022/04/02 07:32:24;;;;;;;39.67;24.45;;;;;;;;;;5032654;28;20043;-42
2022/04/02 07:34:50;;;;;;;38.50;24.98;;;;;;;;;;5032932;28;20402;-42
2022/04/02 07:37:40;;;;;;;38.08;24.02;;;;;;;;;;5032645;28;20044;-42
2022/04/02 07:40:06;;;;;;;32.33;22.92;;;;;;;;;;5032538;28;20531;-42
2022/04/02 07:42:37;;;;;;;37.28;23.80;;;;;;;;;;5032694;28;20021;-41
2022/04/02 07:45:04;;;;;;;36.83;25.23;;;;;;;;;;5033866;28;20021;-41
2022/04/02 07:47:31;;;;;;;36.10;22.80;;;;;;;;;;5036602;28;20018;-40
2022/04/02 07:49:59;;;;;;;33.78;22.40;;;;;;;;;;5034919;28;20026;-40
2022/04/02 07:52:24;;;;;;;32.87;22.53;;;;;;;;;;5036370;28;20136;-41
2022/04/02 07:54:54;;;;;;;32.03;19.58;;;;;;;;;;5034628;28;20548;-40
2022/04/02 07:57:21;;;;;;;35.90;22.98;;;;;;;;;;5035820;28;20025;-41
2022/04/02 07:59:50;;;;;;;34.00;22.38;;;;;;;;;;5035331;28;20085;-42
2022/04/02 08:05:00;;;;;;;33.03;22.45;;;;;;;;;;5035950;28;20084;-41
2022/04/02 08:07:28;;;;;;;38.20;24.60;;;;;;;;;;5035931;28;20021;-41
2022/04/02 08:09:54;;;;;;;35.72;23.25;;;;;;;;;;5036060;28;20108;-41
2022/04/02 08:12:19;;;;;;;37.67;24.75;;;;;;;;;;5035950;28;20124;-41
2022/04/02 08:14:46;;;;;;;32.50;22.15;;;;;;;;;;5034579;28;20103;-43
2022/04/02 08:17:12;;;;;;;36.42;23.33;;;;;;;;;;5033594;28;20380;-42
2022/04/02 08:19:38;;;;;;;37.33;23.50;;;;;;;;;;5033687;28;20043;-43
2022/04/02 08:22:04;;;;;;;34.60;24.05;;;;;;;;;;5033535;28;20022;-42
2022/04/02 08:24:29;;;;;;;33.15;23.08;;;;;;;;;;5033212;28;20021;-43
2022/04/02 08:27:00;;;;;;;38.60;23.52;;;;;;;;;;5033636;28;20461;-43
2022/04/02 08:29:26;;;;;;;37.40;23.70;;;;;;;;;;5033079;28;20022;-41
2022/04/02 08:32:06;;;;;;;32.17;22.02;;;;;;;;;;5035465;28;20079;-41
2022/04/02 08:34:50;;;;;;;32.78;22.42;;;;;;;;;;5035541;28;20036;-42
2022/04/02 08:37:38;;;;;;;33.72;23.25;;;;;;;;;;5035559;28;20557;-42
2022/04/02 08:40:18;;;;;;;34.78;24.10;;;;;;;;;;5024423;28;20030;-42
2022/04/02 08:42:58;;;;;;;33.58;22.80;;;;;;;;;;5035256;28;20523;-41
2022/04/02 08:45:28;;;;;;;33.85;23.02;;;;;;;;;;5035133;28;20083;-41
2022/04/02 08:47:59;;;;;;;35.97;22.60;;;;;;;;;;5035489;28;20030;-42
2022/04/02 08:50:29;;;;;;;36.08;22.40;;;;;;;;;;5035148;28;20025;-42
2022/04/02 08:52:55;;;;;;;32.35;22.38;;;;;;;;;;5033794;28;20037;-42
2022/04/02 08:55:34;;;;;;;34.63;22.63;;;;;;;;;;5035015;28;20049;-42
2022/04/02 08:57:59;;;;;;;33.08;22.45;;;;;;;;;;5034265;28;20117;-42
2022/04/02 09:00:26;;;;;;;32.43;23.07;;;;;;;;;;5035176;28;20107;-42
2022/04/02 09:03:10;;;;;;;37.30;23.27;;;;;;;;;;5034967;28;20247;-42
2022/04/02 09:05:54;;;;;;;36.22;23.65;;;;;;;;;;5035023;28;20033;-43
2022/04/02 09:08:48;;;;;;;34.83;22.70;;;;;;;;;;5034642;28;20022;-42
2022/04/02 09:11:24;;;;;;;34.40;22.33;;;;;;;;;;5033671;28;20124;-42
2022/04/02 09:13:49;;;;;;;32.13;23.23;;;;;;;;;;5034806;28;20075;-41
2022/04/02 09:16:26;;;;;;;37.28;22.55;;;;;;;;;;5034602;28;20022;-42
2022/04/02 09:19:11;;;;;;;34.58;22.13;;;;;;;;;;5034546;28;20083;-42
2022/04/02 09:21:47;;;;;;;32.08;22.10;;;;;;;;;;5034832;28;20018;-42
2022/04/02 09:24:31;;;;;;;34.30;23.85;;;;;;;;;;5033377;28;20025;-42
2022/04/02 09:27:09;;;;;;;34.97;24.65;;;;;;;;;;5034425;28;20117;-42
2022/04/02 09:29:57;;;;;;;35.70;22.27;;;;;;;;;;5034595;28;20415;-41
2022/04/02 09:32:22;;;;;;;35.13;23.33;;;;;;;;;;5032935;28;20530;-42
2022/04/02 09:35:06;;;;;;;34.65;23.45;;;;;;;;;;5033077;28;20014;-42
2022/04/02 09:37:34;;;;;;;34.97;22.77;;;;;;;;;;5034068;28;20075;-42
2022/04/02 09:40:03;;;;;;;37.55;23.88;;;;;;;;;;5034150;28;20043;-41
2022/04/02 09:42:38;;;;;;;36.78;25.10;;;;;;;;;;5033098;28;20047;-42
2022/04/02 09:45:03;;;;;;;35.58;25.30;;;;;;;;;;5034106;28;20030;-42
2022/04/02 09:47:28;;;;;;;35.97;24.52;;;;;;;;;;5034278;28;20362;-42
2022/04/02 09:50:06;;;;;;;38.63;25.93;;;;;;;;;;5033996;28;20028;-41
2022/04/02 09:52:32;;;;;;;39.83;26.75;;;;;;;;;;5034099;28;20287;-42
2022/04/02 09:55:05;;;;;;;37.55;26.08;;;;;;;;;;5032504;28;20447;-42
2022/04/02 09:57:49;;;;;;;36.13;24.55;;;;;;;;;;5033953;28;20124;-42
2022/04/02 10:00:18;;;;;;;38.83;26.05;;;;;;;;;;5033944;28;20109;-42
2022/04/02 10:02:55;;;;;;;40.00;27.30;;;;;;;;;;5033579;28;20017;-42
2022/04/02 10:05:23;;;;;;;38.97;27.05;;;;;;;;;;5033935;28;20038;-44
2022/04/02 10:07:54;;;;;;;39.65;25.75;;;;;;;;;;5033406;28;20429;-44
2022/04/02 10:10:26;;;;;;;38.15;25.80;;;;;;;;;;5033419;28;20031;-46
2022/04/02 10:12:53;;;;;;;36.83;26.23;;;;;;;;;;5034175;28;20029;-43
2022/04/02 10:15:19;;;;;;;35.78;25.73;;;;;;;;;;5033219;28;20021;-44
2022/04/02 10:17:50;;;;;;;37.97;25.65;;;;;;;;;;5032616;28;20079;-44
2022/04/02 10:20:18;;;;;;;35.35;25.30;;;;;;;;;;5033558;28;20476;-43
2022/04/02 10:22:44;;;;;;;38.83;26.63;;;;;;;;;;5033736;28;20640;-42
2022/04/02 10:25:11;;;;;;;36.80;25.58;;;;;;;;;;5033499;28;20017;-46
2022/04/02 10:27:40;;;;;;;37.35;25.52;;;;;;;;;;5033398;28;20021;-42
2022/04/02 10:30:07;;;;;;;45.70;27.95;;;;;;;;;;5033249;28;20041;-42
2022/04/02 10:32:52;;;;;;;39.60;26.40;;;;;;;;;;5031971;28;20489;-41
2022/04/02 10:35:18;;;;;;;41.65;27.23;;;;;;;;;;5033375;28;20025;-41
2022/04/02 10:37:58;;;;;;;38.97;26.67;;;;;;;;;;5033140;28;20021;-41
2022/04/02 10:40:25;;;;;;;43.10;27.77;;;;;;;;;;5032988;28;20095;-41
2022/04/02 10:42:59;;;;;;;62.53;32.38;;;;;;;;;;5033445;28;20021;-41
2022/04/02 10:45:27;;;;;;;80.75;33.80;;;;;;;;;;5033311;28;20037;-41
2022/04/02 10:48:09;;;;;;;50.20;29.88;;;;;;;;;;5033277;28;20017;-41
2022/04/02 10:50:34;;;;;;;41.08;27.17;;;;;;;;;;5032947;28;20065;-43
2022/04/02 10:53:00;;;;;;;42.97;27.23;;;;;;;;;;5032581;28;20092;-42
2022/04/02 10:55:26;;;;;;;35.15;25.05;;;;;;;;;;5033209;28;20029;-42
2022/04/02 10:57:52;;;;;;;41.15;27.08;;;;;;;;;;5033166;28;20025;-41
2022/04/02 11:00:18;;;;;;;37.60;25.77;;;;;;;;;;5033059;28;20013;-40
2022/04/02 11:02:44;;;;;;;39.90;26.10;;;;;;;;;;5032805;28;20033;-41
2022/04/02 11:05:10;;;;;;;39.67;26.02;;;;;;;;;;5031755;28;20026;-41
2022/04/02 11:07:37;;;;;;;39.28;24.33;;;;;;;;;;5031379;28;20388;-41
2022/04/02 11:10:03;;;;;;;47.22;27.23;;;;;;;;;;5032949;28;20018;-41
2022/04/02 11:12:41;;;;;;;55.55;30.13;;;;;;;;;;5032594;28;20036;-41
2022/04/02 11:15:09;;;;;;;55.25;28.63;;;;;;;;;;5032828;28;20108;-41
2022/04/02 11:17:36;;;;;;;39.13;26.67;;;;;;;;;;5032818;28;20096;-41
2022/04/02 11:20:03;;;;;;;38.25;23.65;;;;;;;;;;5033845;28;20058;-41
2022/04/02 11:22:29;;;;;;;37.38;24.65;;;;;;;;;;5037099;28;20546;-41
2022/04/02 11:25:02;;;;;;;39.55;26.10;;;;;;;;;;5037199;28;20356;-41
2022/04/02 11:27:28;;;;;;;44.03;25.92;;;;;;;;;;5036729;28;20022;-42
2022/04/02 11:29:59;;;;;;;34.75;24.10;;;;;;;;;;5036709;28;20018;-41
2022/04/02 11:32:25;;;;;;;34.78;24.13;;;;;;;;;;5036539;28;20033;-43
2022/04/02 11:34:52;;;;;;;35.28;24.20;;;;;;;;;;5036432;28;20040;-42
2022/04/02 11:37:19;;;;;;;30.92;22.50;;;;;;;;;;5035393;28;20021;-41
2022/04/02 11:39:48;;;;;;;31.73;23.92;;;;;;;;;;5036958;28;20483;-42
2022/04/02 11:42:14;;;;;;;34.38;24.95;;;;;;;;;;5036557;28;20033;-42
2022/04/02 11:44:44;;;;;;;33.67;23.38;;;;;;;;;;5036541;28;20116;-42
2022/04/02 11:47:11;;;;;;;34.58;23.95;;;;;;;;;;5036301;28;20056;-42
2022/04/02 11:49:39;;;;;;;36.53;24.80;;;;;;;;;;5036532;28;20017;-45
2022/04/02 11:52:10;;;;;;;40.53;27.35;;;;;;;;;;5036490;28;20034;-43
2022/04/02 11:54:57;;;;;;;44.75;27.98;;;;;;;;;;5035916;28;20396;-45
2022/04/02 11:57:22;;;;;;;37.85;25.40;;;;;;;;;;5036203;28;20029;-43
2022/04/02 11:59:53;;;;;;;37.35;23.08;;;;;;;;;;5036008;28;20427;-43
2022/04/02 12:02:37;;;;;;;35.85;25.42;;;;;;;;;;5036250;28;20025;-41
2022/04/02 12:05:05;;;;;;;41.15;27.50;;;;;;;;;;5036053;28;20366;-41
2022/04/02 12:07:42;;;;;;;39.40;27.33;;;;;;;;;;5036130;28;20026;-41
2022/04/02 12:10:27;;;;;;;37.10;26.10;;;;;;;;;;5034586;28;20419;-41
2022/04/02 12:12:54;;;;;;;35.38;24.30;;;;;;;;;;5034658;28;20037;-40
2022/04/02 12:15:20;;;;;;;34.05;24.67;;;;;;;;;;5035840;28;20028;-42
2022/04/02 12:17:47;;;;;;;33.60;25.50;;;;;;;;;;5035818;28;20022;-42
2022/04/02 12:20:13;;;;;;;40.47;25.90;;;;;;;;;;5035786;28;20026;-44
2022/04/02 12:22:41;;;;;;;38.72;25.90;;;;;;;;;;5035798;28;20021;-46
2022/04/02 12:25:08;;;;;;;37.80;26.48;;;;;;;;;;5035844;28;20025;-42
2022/04/02 12:27:38;;;;;;;40.85;25.92;;;;;;;;;;5035855;28;20026;-43
2022/04/02 12:30:04;;;;;;;35.80;24.80;;;;;;;;;;5035756;28;20071;-42
2022/04/02 12:32:31;;;;;;;37.53;24.50;;;;;;;;;;5034352;28;20040;-43
2022/04/02 12:34:57;;;;;;;39.20;26.17;;;;;;;;;;5035618;28;20049;-43
2022/04/02 12:37:23;;;;;;;36.58;26.08;;;;;;;;;;5035308;28;20063;-43
2022/04/02 12:39:48;;;;;;;39.75;26.55;;;;;;;;;;5036028;28;20365;-43
2022/04/02 12:42:13;;;;;;;35.70;25.45;;;;;;;;;;5035531;28;20026;-45
2022/04/02 12:44:38;;;;;;;38.83;25.90;;;;;;;;;;5035532;28;20025;-43
2022/04/02 12:47:08;;;;;;;36.75;25.42;;;;;;;;;;5035405;28;20453;-42
2022/04/02 12:49:35;;;;;;;36.47;25.10;;;;;;;;;;5035693;28;20368;-44
2022/04/02 12:52:11;;;;;;;40.17;25.48;;;;;;;;;;5034957;28;20037;-48
2022/04/02 12:54:36;;;;;;;38.28;25.05;;;;;;;;;;5035055;28;20099;-44
2022/04/02 12:57:15;;;;;;;38.63;24.60;;;;;;;;;;5035302;28;20025;-48
2022/04/02 12:59:42;;;;;;;38.90;26.30;;;;;;;;;;5035203;28;20109;-46
2022/04/02 13:02:08;;;;;;;35.83;23.88;;;;;;;;;;5034973;28;20021;-46
2022/04/02 13:04:34;;;;;;;37.60;23.80;;;;;;;;;;5034781;28;20089;-45
2022/04/02 13:07:03;;;;;;;33.97;23.63;;;;;;;;;;5035215;28;20025;-48
2022/04/02 13:09:35;;;;;;;33.70;23.50;;;;;;;;;;5033675;28;20053;-45
2022/04/02 13:12:01;;;;;;;35.00;23.05;;;;;;;;;;5034875;28;20045;-44
2022/04/02 13:14:27;;;;;;;37.50;23.67;;;;;;;;;;5034816;28;20043;-43
2022/04/02 13:17:06;;;;;;;36.50;24.27;;;;;;;;;;5033425;28;20018;-44
2022/04/02 13:22:24;;;;;;;37.22;24.45;;;;;;;;;;5034690;28;20512;-44
2022/04/02 13:24:59;;;;;;;37.95;23.60;;;;;;;;;;5034766;28;20022;-45
2022/04/02 13:27:24;;;;;;;39.25;25.05;;;;;;;;;;5034481;28;20472;-43
2022/04/02 13:29:52;;;;;;;32.47;22.13;;;;;;;;;;5034370;28;20067;-46
2022/04/02 13:32:32;;;;;;;39.92;24.02;;;;;;;;;;5034468;28;20034;-44
2022/04/02 13:35:04;;;;;;;34.75;23.70;;;;;;;;;;5034451;28;20488;-44
2022/04/02 13:37:44;;;;;;;36.20;23.73;;;;;;;;;;5034451;28;20041;-43
2022/04/02 13:40:13;;;;;;;34.13;22.95;;;;;;;;;;5034433;28;20109;-44
2022/04/02 13:42:44;;;;;;;36.65;21.95;;;;;;;;;;5034334;28;20044;-44
2022/04/02 13:45:11;;;;;;;36.95;24.10;;;;;;;;;;5034357;28;20053;-45
2022/04/02 13:47:39;;;;;;;39.40;22.95;;;;;;;;;;5034187;28;20033;-45
2022/04/02 13:50:05;;;;;;;37.13;24.03;;;;;;;;;;5034174;28;20032;-47
2022/04/02 13:52:34;;;;;;;34.97;23.27;;;;;;;;;;5033835;28;20036;-44
2022/04/02 13:55:06;;;;;;;36.90;24.63;;;;;;;;;;5034490;28;20049;-45
2022/04/02 13:57:33;;;;;;;42.33;25.27;;;;;;;;;;5034370;28;20036;-43
2022/04/02 14:00:08;;;;;;;40.50;24.73;;;;;;;;;;5034085;28;20014;-45
2022/04/02 14:02:34;;;;;;;40.58;25.83;;;;;;;;;;5033863;28;20032;-45
2022/04/02 14:05:03;;;;;;;36.63;23.50;;;;;;;;;;5033781;28;20017;-44
2022/04/02 14:07:34;;;;;;;38.75;25.00;;;;;;;;;;5033713;28;20462;-44
2022/04/02 14:10:08;;;;;;;40.10;25.40;;;;;;;;;;5033714;28;20024;-45
2022/04/02 14:12:38;;;;;;;41.67;25.58;;;;;;;;;;5033596;28;20029;-46
2022/04/02 14:15:08;;;;;;;42.42;25.15;;;;;;;;;;5033565;28;20465;-47
2022/04/02 14:17:38;;;;;;;40.45;25.75;;;;;;;;;;5033562;28;20022;-47
2022/04/02 14:20:05;;;;;;;42.40;25.30;;;;;;;;;;5033483;28;20029;-47
2022/04/02 14:22:34;;;;;;;41.30;24.42;;;;;;;;;;5033755;28;20030;-47
2022/04/02 14:25:25;;;;;;;40.80;25.80;;;;;;;;;;5033601;28;20512;-44
2022/04/02 14:27:51;;;;;;;;;;;;;;;;;;5033993;28;20108;-46
2022/04/02 14:30:34;;;;;;;44.22;25.65;;;;;;;;;;5033109;28;20024;-45
2022/04/02 14:33:10;;;;;;;48.90;26.00;;;;;;;;;;5033576;28;20087;-46